Endeavor, WI (53930)

10:33 PM CST on January 22, 2017 (GMT -0600)
Parker Lake | | Change Station

Elev 890 ft 43.77 °N, 89.63 °W | Updated 19 seconds ago

Overcast
Overcast
35.1 °F
Feels Like 32 °F
N
4.0
Wind Variable Wind from West

Today
High -- | Low -- °F
--% Chance of Precip.
Yesterday
High -- | Low -- °F
Precip. -- in
Pressure 29.73 in
Visibility 1.8 miles
Clouds Overcast 300 ft
Windchill 32 °F
Dew Point 34 °F
Humidity 98%
Rainfall 0.26 in
Snow Depth Not available.
7:23 AM 4:55 PM
Waning Crescent, 21% visible
METAR KDLL 230415Z AUTO 32005KT 1 3/4SM BR OVC003 02/02 A2973 RMK AO2 T00160016
Pressure 29.73 in
Visibility 1.8 miles
Clouds Overcast 300 ft
Windchill 32 °F
Dew Point 34 °F
Humidity 98%
Rainfall 0.26 in
Snow Depth Not available.
7:23 AM 4:55 PM
Waning Crescent, 21% visible
METAR KDLL 230415Z AUTO 32005KT 1 3/4SM BR OVC003 02/02 A2973 RMK AO2 T00160016

Get Your Daily Forecast Email!

Thanks for signing up!

Be on the lookout for a verification email in your inbox.

You'll start receiving the daily forecast at 8 AM.

×

10-Day Weather Forecast

Almanac

Astronomy

Jan. 22, 2017 Rise Set
Actual Time
Civil Twilight
Nautical Twilight
Astronomical Twilight
Moon
Length of Visible Light
Length of Day
Tomorrow will be .
, % of the Moon is Illuminated

Today's Extremes

State Highs State Lows

Community

WunderPhotos

Upload Photos

1,962,540 photos uploaded!

WunderBlog® & News

Nearby

Air Quality

  Air Quality AQ Index Pollutant
Not available.

Snow Depth

Station Depth Elevation

Earthquake Activity

City Distance Mag. Time & Date
Minimum magnitude displayed is 2.5.

Coastal Water Temperatures

Place Temperature

Stations

Nearby Weather Stations

Station Location Temp. Windchill Dew Point Humidity Wind Precip. Elev Updated Type
                   

Watches & Warnings

There are currently no watches in effect.